Time;durP1;ratioP1;P1;durP2;ratioP2;P2;SDS_P1;SDS_P2;PMS_P1;PMS_P2;Temp;Humidity;BMP_temperature;BMP_pressure;BME280_temperature;BME280_humidity;BME280_pressure;Samples;Min_cycle;Max_cycle;Signal;HPM_P1;HPM_P2
2023/09/03 00:00:54;;;;;;;7.07;3.37;;;19.20;1.00;;;;;;5009752;28;20441;-73
2023/09/03 00:03:19;;;;;;;7.40;3.80;;;19.20;1.00;;;;;;5009020;28;20206;-74
2023/09/03 00:05:49;;;;;;;8.37;4.03;;;19.20;1.00;;;;;;5009436;28;20552;-73
2023/09/03 00:08:15;;;;;;;7.00;3.97;;;19.20;1.00;;;;;;5006136;28;20238;-73
2023/09/03 00:10:41;;;;;;;16.03;4.50;;;19.20;1.00;;;;;;5006075;28;20465;-74
2023/09/03 00:13:07;;;;;;;5.70;4.00;;;19.00;1.00;;;;;;5008603;28;20276;-73
2023/09/03 00:15:32;;;;;;;7.13;3.80;;;19.10;1.00;;;;;;5009076;28;20182;-72
2023/09/03 00:17:58;;;;;;;6.97;4.20;;;19.00;1.00;;;;;;5008772;28;20762;-73
2023/09/03 00:20:23;;;;;;;6.50;3.70;;;19.00;1.00;;;;;;5005581;28;20672;-73
2023/09/03 00:22:49;;;;;;;6.93;4.00;;;19.00;1.00;;;;;;5008431;28;20202;-73
2023/09/03 00:25:14;;;;;;;9.33;4.20;;;19.00;1.00;;;;;;5008577;28;20232;-73
2023/09/03 00:27:40;;;;;;;8.70;3.60;;;19.10;1.00;;;;;;5008158;28;20260;-73
2023/09/03 00:30:06;;;;;;;7.10;3.27;;;19.00;1.00;;;;;;5008941;28;20186;-74
2023/09/03 00:32:32;;;;;;;8.80;4.10;;;19.10;1.00;;;;;;5008827;28;20557;-73
2023/09/03 00:34:58;;;;;;;11.90;3.83;;;19.10;1.00;;;;;;5008564;28;20528;-72
2023/09/03 00:37:24;;;;;;;8.30;3.70;;;19.00;1.00;;;;;;5008942;28;20189;-72
2023/09/03 00:39:49;;;;;;;4.90;3.90;;;19.00;1.00;;;;;;5007068;28;20437;-73
2023/09/03 00:42:15;;;;;;;6.20;3.73;;;19.10;1.00;;;;;;5008529;28;20313;-73
2023/09/03 00:44:40;;;;;;;8.60;3.77;;;19.00;1.00;;;;;;5007394;28;20589;-73
2023/09/03 00:47:07;;;;;;;5.47;3.60;;;19.10;1.00;;;;;;5009550;28;20261;-72
2023/09/03 00:49:32;;;;;;;6.00;3.30;;;19.20;1.00;;;;;;5007145;28;20178;-73
2023/09/03 00:51:58;;;;;;;6.63;3.83;;;19.70;1.00;;;;;;5003684;28;20464;-73
2023/09/03 00:54:24;;;;;;;6.30;4.07;;;19.00;1.00;;;;;;5007949;28;20186;-73
2023/09/03 00:56:52;;;;;;;6.40;4.10;;;19.00;1.00;;;;;;5007485;28;20193;-73
2023/09/03 00:59:19;;;;;;;9.70;4.70;;;19.00;1.00;;;;;;5012222;28;20429;-73
2023/09/03 01:01:49;;;;;;;9.77;4.13;;;18.90;1.00;;;;;;5008860;28;20434;-73
2023/09/03 01:04:14;;;;;;;5.57;4.00;;;18.90;1.00;;;;;;5010220;28;20429;-73
2023/09/03 01:08:25;;;;;;;5.50;3.90;;;18.80;1.00;;;;;;5084337;28;20592;-73
2023/09/03 01:11:04;;;;;;;8.50;4.13;;;18.80;1.00;;;;;;5082752;28;20449;-74
2023/09/03 01:13:37;;;;;;;6.50;3.83;;;18.80;1.00;;;;;;5080930;28;20559;-74
2023/09/03 01:16:11;;;;;;;5.10;4.20;;;18.90;1.00;;;;;;5061425;28;20439;-74
2023/09/03 01:18:39;;;;;;;6.00;4.30;;;18.90;1.00;;;;;;5060200;28;20443;-72
2023/09/03 01:21:28;;;;;;;13.10;4.47;;;18.90;1.00;;;;;;5063347;28;20443;-74
2023/09/03 01:24:13;;;;;;;7.73;3.50;;;18.90;1.00;;;;;;5061575;28;20465;-73
2023/09/03 01:26:56;;;;;;;6.90;4.00;;;18.90;1.00;;;;;;5064425;28;20968;-72
2023/09/03 01:29:23;;;;;;;7.23;3.43;;;19.00;1.00;;;;;;5063043;28;20817;-74
2023/09/03 01:31:49;;;;;;;9.37;4.40;;;18.90;1.00;;;;;;5062007;28;20427;-74
2023/09/03 01:34:16;;;;;;;9.20;3.70;;;18.80;1.00;;;;;;5064100;28;20442;-75
2023/09/03 01:36:42;;;;;;;13.60;4.00;;;18.80;1.00;;;;;;5063132;28;20591;-75
2023/09/03 01:39:08;;;;;;;9.10;4.10;;;18.70;1.00;;;;;;5063870;28;20999;-74
2023/09/03 01:41:35;;;;;;;7.63;3.70;;;18.60;1.00;;;;;;5062997;28;20446;-74
2023/09/03 01:44:02;;;;;;;8.60;3.90;;;18.70;1.00;;;;;;5063663;28;20212;-73
2023/09/03 01:46:49;;;;;;;6.13;3.80;;;18.60;1.00;;;;;;5063200;28;20465;-75
2023/09/03 01:49:30;;;;;;;6.47;3.73;;;18.60;1.00;;;;;;5064341;28;20529;-73
2023/09/03 01:52:10;;;;;;;6.67;3.93;;;18.40;1.00;;;;;;5062489;28;20473;-74
2023/09/03 01:54:40;;;;;;;11.03;4.10;;;18.40;1.00;;;;;;5060630;28;20933;-74
2023/09/03 01:57:12;;;;;;;7.57;4.20;;;18.40;1.00;;;;;;5056998;28;20435;-75
2023/09/03 01:59:48;;;;;;;8.43;3.77;;;18.30;1.00;;;;;;5063003;28;20965;-75
2023/09/03 02:02:15;;;;;;;7.00;4.47;;;18.30;1.00;;;;;;5056823;28;20468;-73
2023/09/03 02:04:41;;;;;;;8.80;4.20;;;18.20;1.00;;;;;;5076757;28;20466;-74
2023/09/03 02:07:06;;;;;;;9.50;4.40;;;18.30;1.00;;;;;;5063058;28;20980;-74
2023/09/03 02:09:32;;;;;;;5.93;4.40;;;18.30;1.00;;;;;;5063188;28;20227;-75
2023/09/03 02:11:58;;;;;;;6.00;4.00;;;18.30;1.00;;;;;;5060242;28;20273;-73
2023/09/03 02:14:23;;;;;;;11.40;4.07;;;18.30;1.00;;;;;;5062249;28;20200;-74
2023/09/03 02:16:50;;;;;;;14.73;4.00;;;18.30;1.00;;;;;;5062903;28;20192;-73
2023/09/03 02:19:16;;;;;;;8.00;4.67;;;18.20;1.00;;;;;;5051137;28;20684;-74
2023/09/03 02:21:41;;;;;;;7.47;3.93;;;18.20;1.00;;;;;;5064722;28;20447;-74
2023/09/03 02:24:07;;;;;;;8.67;3.60;;;18.20;1.00;;;;;;5046008;28;20598;-73
2023/09/03 02:26:38;;;;;;;7.60;3.90;;;18.20;1.00;;;;;;5048021;28;20232;-73
2023/09/03 02:29:04;;;;;;;7.70;3.77;;;18.10;1.00;;;;;;5049440;28;20177;-73
2023/09/03 02:31:29;;;;;;;11.83;3.90;;;18.40;1.00;;;;;;5048760;28;20534;-73
2023/09/03 02:33:55;;;;;;;7.23;3.40;;;18.00;1.00;;;;;;5049332;28;20205;-73
2023/09/03 02:36:20;;;;;;;6.00;3.47;;;18.00;1.00;;;;;;5048457;28;20196;-73
2023/09/03 02:38:46;;;;;;;7.10;4.30;;;17.90;1.00;;;;;;5048763;28;20192;-74
2023/09/03 02:41:11;;;;;;;5.60;3.50;;;17.90;1.00;;;;;;5049507;28;20220;-74
2023/09/03 02:43:37;;;;;;;7.23;4.20;;;17.90;1.00;;;;;;5048804;28;20224;-73
2023/09/03 02:46:02;;;;;;;9.53;3.87;;;17.90;1.00;;;;;;5048446;28;21132;-74
2023/09/03 02:48:28;;;;;;;6.47;4.43;;;17.90;1.00;;;;;;5049156;28;20185;-74
2023/09/03 02:50:53;;;;;;;8.10;4.27;;;17.70;1.00;;;;;;5049052;28;20189;-74
2023/09/03 02:53:18;;;;;;;7.70;3.80;;;17.80;1.00;;;;;;5048434;28;20212;-74
2023/09/03 02:55:44;;;;;;;5.50;3.73;;;17.80;1.00;;;;;;5049497;28;20192;-75
2023/09/03 02:58:09;;;;;;;6.00;3.70;;;17.80;1.00;;;;;;5049434;28;20651;-75
2023/09/03 03:00:35;;;;;;;6.30;3.90;;;17.80;1.00;;;;;;5047058;28;20193;-74
2023/09/03 03:03:01;;;;;;;15.63;4.10;;;17.80;1.00;;;;;;5047946;28;20488;-74
2023/09/03 03:05:26;;;;;;;6.27;3.80;;;17.70;1.00;;;;;;5048463;28;20193;-73
2023/09/03 03:07:52;;;;;;;8.57;3.93;;;17.70;1.00;;;;;;5048954;28;20204;-74
2023/09/03 03:10:17;;;;;;;9.00;3.97;;;17.70;1.00;;;;;;5048763;28;20262;-73
2023/09/03 03:12:44;;;;;;;14.97;4.10;;;17.70;1.00;;;;;;5046195;28;20561;-73
2023/09/03 03:15:10;;;;;;;9.13;4.10;;;17.70;1.00;;;;;;5047114;28;20265;-74
2023/09/03 03:17:36;;;;;;;5.03;3.80;;;17.80;1.00;;;;;;5048616;28;20597;-74
2023/09/03 03:20:03;;;;;;;8.70;3.93;;;17.80;1.00;;;;;;5047620;28;20185;-75
2023/09/03 03:22:28;;;;;;;7.40;3.73;;;17.80;1.00;;;;;;5048406;28;20295;-74
2023/09/03 03:24:53;;;;;;;6.73;4.20;;;17.80;1.00;;;;;;5048328;28;20570;-74
2023/09/03 03:27:20;;;;;;;8.90;4.50;;;17.80;1.00;;;;;;5048419;28;20675;-73
2023/09/03 03:29:45;;;;;;;9.53;4.47;;;17.80;1.00;;;;;;5047474;28;20501;-75
2023/09/03 03:32:11;;;;;;;8.43;4.20;;;17.70;1.00;;;;;;5047853;28;20558;-75
2023/09/03 03:34:40;;;;;;;8.23;4.03;;;17.60;1.00;;;;;;5047734;28;20533;-73
2023/09/03 03:37:05;;;;;;;6.17;3.77;;;17.60;1.00;;;;;;5048327;28;20189;-74
2023/09/03 03:39:31;;;;;;;5.27;3.73;;;17.50;1.00;;;;;;5048523;28;20446;-74
2023/09/03 03:41:56;;;;;;;7.50;3.70;;;17.50;1.00;;;;;;5047107;28;20980;-74
2023/09/03 03:44:22;;;;;;;8.50;3.70;;;17.50;1.00;;;;;;5046675;28;20247;-74
2023/09/03 03:46:47;;;;;;;6.43;3.40;;;17.40;1.00;;;;;;5047271;28;20208;-75
2023/09/03 03:49:13;;;;;;;5.67;3.10;;;17.40;1.00;;;;;;5048563;28;20181;-74
2023/09/03 03:51:39;;;;;;;6.70;3.60;;;;;;;;;;5047468;28;20177;-75
2023/09/03 03:54:05;;;;;;;7.30;3.63;;;17.30;1.00;;;;;;5047664;28;20236;-74
2023/09/03 03:56:30;;;;;;;9.90;4.70;;;17.30;1.00;;;;;;5048465;28;20435;-74
2023/09/03 03:58:56;;;;;;;7.30;4.00;;;17.30;1.00;;;;;;5046854;28;20475;-73
2023/09/03 04:01:25;;;;;;;6.37;3.57;;;17.20;1.00;;;;;;5062100;28;20189;-74
2023/09/03 04:03:52;;;;;;;5.90;3.30;;;17.20;1.00;;;;;;5047917;28;20578;-73
2023/09/03 04:06:18;;;;;;;8.13;3.50;;;17.20;1.00;;;;;;5046525;28;20447;-74
2023/09/03 04:08:45;;;;;;;9.40;4.70;;;17.40;1.00;;;;;;5046721;28;20453;-74
2023/09/03 04:11:15;;;;;;;5.60;3.70;;;17.40;1.00;;;;;;5046451;28;20428;-73
2023/09/03 04:13:41;;;;;;;6.10;4.10;;;17.40;1.00;;;;;;5045301;28;20455;-74
2023/09/03 04:16:10;;;;;;;9.47;4.03;;;17.30;1.00;;;;;;5047452;28;20860;-74
2023/09/03 04:18:36;;;;;;;6.70;3.93;;;17.30;1.00;;;;;;5046412;28;20193;-74
2023/09/03 04:21:02;;;;;;;4.67;3.60;;;17.30;1.00;;;;;;5046544;28;20423;-74
2023/09/03 04:23:28;;;;;;;5.27;3.80;;;17.30;1.00;;;;;;5044849;28;20521;-73
2023/09/03 04:25:56;;;;;;;9.80;4.70;;;17.30;1.00;;;;;;5044826;28;20432;-73
2023/09/03 04:28:22;;;;;;;6.87;4.13;;;17.30;1.00;;;;;;5043367;28;20212;-73
2023/09/03 04:30:53;;;;;;;8.13;4.10;;;17.30;1.00;;;;;;5046844;28;20431;-73
2023/09/03 04:33:19;;;;;;;4.90;3.63;;;17.30;1.00;;;;;;5040380;28;20451;-75
2023/09/03 04:35:45;;;;;;;10.23;3.73;;;17.40;1.00;;;;;;5047120;28;20468;-74
2023/09/03 04:38:10;;;;;;;12.73;3.87;;;17.40;1.00;;;;;;5044310;28;20440;-75
2023/09/03 04:40:37;;;;;;;9.50;3.90;;;17.30;1.00;;;;;;5045828;28;20192;-73
2023/09/03 04:43:03;;;;;;;11.80;4.07;;;17.40;1.00;;;;;;5044314;28;20579;-74
2023/09/03 04:45:29;;;;;;;4.13;3.73;;;17.30;1.00;;;;;;5061660;28;20455;-75
2023/09/03 04:47:56;;;;;;;11.30;4.07;;;17.40;1.00;;;;;;5046813;28;20454;-76
2023/09/03 04:50:22;;;;;;;7.33;3.93;;;17.30;1.00;;;;;;5044442;28;20184;-74
2023/09/03 04:52:48;;;;;;;5.30;4.03;;;17.20;1.00;;;;;;5045623;28;20447;-74
2023/09/03 04:55:14;;;;;;;8.23;3.80;;;17.20;1.00;;;;;;5046734;28;20181;-74
2023/09/03 04:57:40;;;;;;;7.20;3.73;;;17.30;1.00;;;;;;5042718;28;20816;-74
2023/09/03 05:00:07;;;;;;;6.93;3.80;;;17.40;1.00;;;;;;5045543;28;20203;-74
2023/09/03 05:02:33;;;;;;;5.40;4.20;;;17.50;1.00;;;;;;5055389;28;20208;-74
2023/09/03 05:04:59;;;;;;;4.80;3.77;;;17.50;1.00;;;;;;5048311;28;20416;-74
2023/09/03 05:07:24;;;;;;;8.80;4.10;;;17.50;1.00;;;;;;5048394;28;20687;-73
2023/09/03 05:09:53;;;;;;;8.03;4.27;;;17.50;1.00;;;;;;5047980;28;20192;-73
2023/09/03 05:12:19;;;;;;;8.20;4.70;;;17.60;1.00;;;;;;5048494;28;20197;-74
2023/09/03 05:14:45;;;;;;;5.83;3.93;;;17.50;1.00;;;;;;5048478;28;20573;-74
2023/09/03 05:17:11;;;;;;;11.03;4.67;;;17.50;1.00;;;;;;5048501;28;20638;-74
2023/09/03 05:19:37;;;;;;;10.53;4.27;;;17.60;1.00;;;;;;5051801;28;20682;-73
2023/09/03 05:22:02;;;;;;;7.00;4.10;;;17.60;1.00;;;;;;5048416;28;20474;-73
2023/09/03 05:24:28;;;;;;;7.03;4.30;;;17.60;1.00;;;;;;5048396;28;20203;-73
2023/09/03 05:26:53;;;;;;;6.90;4.37;;;17.70;1.00;;;;;;5048519;28;20545;-74
2023/09/03 05:29:19;;;;;;;9.70;4.03;;;17.70;1.00;;;;;;5051994;28;20185;-74
2023/09/03 05:31:44;;;;;;;7.83;4.20;;;17.90;1.00;;;;;;5049061;28;20177;-73
2023/09/03 05:34:10;;;;;;;7.70;4.20;;;17.90;1.00;;;;;;5047300;28;20205;-73
2023/09/03 05:36:35;;;;;;;7.30;4.10;;;18.00;1.00;;;;;;5048492;28;20260;-74
2023/09/03 05:39:01;;;;;;;10.07;4.73;;;18.00;1.00;;;;;;5044835;28;20181;-73
2023/09/03 05:41:27;;;;;;;7.50;5.40;;;18.00;1.00;;;;;;5062754;28;20213;-72
2023/09/03 05:43:55;;;;;;;8.53;4.93;;;17.80;1.00;;;;;;5045965;28;20301;-73
2023/09/03 05:46:21;;;;;;;9.30;4.73;;;17.90;1.00;;;;;;5045479;28;20216;-73
2023/09/03 05:48:50;;;;;;;7.73;4.67;;;17.90;1.00;;;;;;5045511;28;20999;-76
2023/09/03 05:51:16;;;;;;;7.13;4.97;;;17.90;1.00;;;;;;5052857;28;20681;-74
2023/09/03 05:53:41;;;;;;;9.67;5.33;;;18.00;1.00;;;;;;5048003;28;20509;-74
2023/09/03 05:56:11;;;;;;;10.20;5.60;;;18.10;1.00;;;;;;5050071;28;20223;-73
2023/09/03 05:58:37;;;;;;;8.80;5.40;;;18.20;1.00;;;;;;5044900;28;20227;-73
2023/09/03 06:01:07;;;;;;;8.20;6.07;;;18.20;1.00;;;;;;5049984;28;20581;-73
2023/09/03 06:03:33;;;;;;;8.10;5.90;;;18.30;1.00;;;;;;5051070;28;20459;-74
2023/09/03 06:06:17;;;;;;;7.37;5.60;;;18.50;1.00;;;;;;5056213;28;20435;-74
2023/09/03 06:08:42;;;;;;;10.97;5.73;;;18.60;1.00;;;;;;5049299;28;20606;-74
2023/09/03 06:11:08;;;;;;;9.23;5.40;;;18.70;1.00;;;;;;5046785;28;20929;-73
2023/09/03 06:13:34;;;;;;;9.47;6.03;;;18.80;1.00;;;;;;5048292;28;20204;-74
2023/09/03 06:15:59;;;;;;;8.33;5.67;;;19.00;1.00;;;;;;5050607;28;20181;-74
2023/09/03 06:18:25;;;;;;;7.80;5.90;;;19.20;1.00;;;;;;5055268;28;20644;-75
2023/09/03 06:20:51;;;;;;;7.57;5.70;;;19.40;1.00;;;;;;5049003;28;20626;-74
2023/09/03 06:23:21;;;;;;;9.97;6.40;;;19.50;1.00;;;;;;5052482;28;20291;-74
2023/09/03 06:25:46;;;;;;;8.90;5.87;;;19.70;1.00;;;;;;5049014;28;20487;-74
2023/09/03 06:28:12;;;;;;;9.50;6.67;;;19.70;1.00;;;;;;5046855;28;20463;-74
2023/09/03 06:30:37;;;;;;;13.00;7.10;;;19.60;1.00;;;;;;5049376;28;20205;-73
2023/09/03 06:33:03;;;;;;;10.23;6.60;;;19.60;1.00;;;;;;5048819;28;20529;-74
2023/09/03 06:35:29;;;;;;;10.00;8.00;;;19.70;1.00;;;;;;5050244;28;20181;-74
2023/09/03 06:37:58;;;;;;;9.57;6.73;;;19.80;1.00;;;;;;5048806;28;20189;-73
2023/09/03 06:40:24;;;;;;;11.50;7.60;;;20.10;1.00;;;;;;5052158;28;20267;-74
2023/09/03 06:42:50;;;;;;;11.07;8.10;;;20.30;1.00;;;;;;5058863;28;21036;-72
2023/09/03 06:45:15;;;;;;;12.23;8.50;;;20.40;1.00;;;;;;5045191;28;20467;-74
2023/09/03 06:47:41;;;;;;;10.10;8.20;;;20.50;1.00;;;;;;5048834;28;20243;-73
2023/09/03 06:50:07;;;;;;;12.20;8.20;;;20.60;1.00;;;;;;5048278;28;20196;-75
2023/09/03 06:52:34;;;;;;;19.00;9.47;;;20.60;1.00;;;;;;5046999;28;20201;-74
2023/09/03 06:55:00;;;;;;;11.47;8.90;;;20.70;1.00;;;;;;5049396;28;20470;-74
2023/09/03 06:57:26;;;;;;;13.17;7.87;;;20.80;1.00;;;;;;5046013;28;20828;-74
2023/09/03 06:59:51;;;;;;;12.77;8.67;;;20.90;1.00;;;;;;5045649;28;20442;-74
2023/09/03 07:02:17;;;;;;;9.77;7.80;;;21.10;1.00;;;;;;5049050;28;20219;-75
2023/09/03 07:04:42;;;;;;;13.53;7.30;;;21.30;1.00;;;;;;5046442;28;20696;-74
2023/09/03 07:07:11;;;;;;;10.30;8.00;;;21.40;1.00;;;;;;5047478;28;20199;-74
2023/09/03 07:09:36;;;;;;;9.53;7.47;;;21.40;1.00;;;;;;5049141;28;20647;-74
2023/09/03 07:12:03;;;;;;;8.80;7.63;;;21.70;1.00;;;;;;5048430;28;20524;-74
2023/09/03 07:14:32;;;;;;;11.27;8.67;;;22.10;1.00;;;;;;5047031;28;20185;-74
2023/09/03 07:16:59;;;;;;;12.23;7.93;;;22.30;1.00;;;;;;5046457;28;20941;-75
2023/09/03 07:19:25;;;;;;;11.33;8.37;;;22.40;1.00;;;;;;5045297;28;20475;-75
2023/09/03 07:21:51;;;;;;;10.80;7.73;;;22.70;1.00;;;;;;5047910;28;20441;-74
2023/09/03 07:24:16;;;;;;;10.20;8.10;;;22.60;1.00;;;;;;5047584;28;20443;-74
2023/09/03 07:26:42;;;;;;;12.90;7.83;;;22.70;1.00;;;;;;5047284;28;20200;-74
2023/09/03 07:29:07;;;;;;;13.00;7.90;;;22.50;1.00;;;;;;5060881;28;20211;-75
2023/09/03 07:31:33;;;;;;;8.90;7.70;;;22.60;1.00;;;;;;5047337;28;20173;-74
2023/09/03 07:33:59;;;;;;;8.87;7.20;;;23.00;1.00;;;;;;5047810;28;20668;-74
2023/09/03 07:36:25;;;;;;;14.77;7.10;;;24.40;1.00;;;;;;5048331;28;20184;-74
2023/09/03 07:38:50;;;;;;;11.20;7.50;;;24.20;1.00;;;;;;5046753;28;20930;-74
2023/09/03 07:41:16;;;;;;;9.90;6.93;;;24.70;1.00;;;;;;5049708;28;20500;-74
2023/09/03 07:43:42;;;;;;;9.20;6.77;;;25.50;1.00;;;;;;5046859;28;20571;-74
2023/09/03 07:46:07;;;;;;;8.33;6.37;;;25.90;1.00;;;;;;5045144;28;20185;-75
2023/09/03 07:48:34;;;;;;;9.33;6.50;;;26.20;1.00;;;;;;5046654;28;20208;-77
2023/09/03 07:50:59;;;;;;;10.00;7.00;;;26.40;1.00;;;;;;5045388;28;20646;-75
2023/09/03 07:53:25;;;;;;;11.67;6.77;;;26.50;1.00;;;;;;5061679;28;20208;-79
2023/09/03 07:55:51;;;;;;;7.87;6.03;;;26.90;1.00;;;;;;5047457;28;20238;-76
2023/09/03 07:58:16;;;;;;;7.60;5.83;;;27.40;1.00;;;;;;5045664;28;20543;-77
2023/09/03 08:00:42;;;;;;;10.27;6.90;;;27.50;1.00;;;;;;5046956;28;20211;-79
2023/09/03 08:03:07;;;;;;;10.30;6.17;;;27.20;1.00;;;;;;5046550;28;20220;-77
2023/09/03 08:05:33;;;;;;;10.87;5.97;;;27.10;1.00;;;;;;5046240;28;21678;-79
2023/09/03 08:07:58;;;;;;;16.20;7.23;;;27.20;1.00;;;;;;5046311;28;20236;-78
2023/09/03 08:10:24;;;;;;;6.33;5.20;;;27.00;1.00;;;;;;5045889;28;20181;-79
2023/09/03 08:12:52;;;;;;;10.10;5.07;;;27.30;1.00;;;;;;5046209;28;20201;-78
2023/09/03 08:15:18;;;;;;;6.53;4.87;;;27.60;1.00;;;;;;5046416;28;20184;-76
2023/09/03 08:17:43;;;;;;;8.97;5.63;;;27.90;1.00;;;;;;5045190;28;20195;-79
2023/09/03 08:20:09;;;;;;;7.33;5.23;;;28.70;1.00;;;;;;5055374;28;20279;-78
2023/09/03 08:22:36;;;;;;;9.60;4.68;;;28.80;1.00;;;;;;5044251;28;21405;-78
2023/09/03 08:25:01;;;;;;;10.27;5.53;;;29.00;1.00;;;;;;5059823;28;20184;-78
2023/09/03 08:27:27;;;;;;;7.05;5.97;;;28.80;1.00;;;;;;5046996;28;20200;-78
2023/09/03 08:29:52;;;;;;;6.28;5.28;;;28.70;1.00;;;;;;5045052;28;20602;-76
2023/09/03 08:32:18;;;;;;;8.52;5.40;;;28.30;1.00;;;;;;5046202;28;20208;-79
2023/09/03 08:34:43;;;;;;;9.17;5.17;;;28.20;1.00;;;;;;5047670;28;20173;-76
2023/09/03 08:37:09;;;;;;;7.40;5.00;;;27.80;1.00;;;;;;5046393;28;20188;-78
2023/09/03 08:39:34;;;;;;;7.90;4.90;;;27.70;1.00;;;;;;5046406;28;20188;-78
2023/09/03 08:42:00;;;;;;;6.77;4.87;;;27.60;1.00;;;;;;5043973;28;20611;-78
2023/09/03 08:44:36;;;;;;;7.30;5.07;;;27.20;1.00;;;;;;5052011;28;20196;-78
2023/09/03 08:47:03;;;;;;;9.27;5.17;;;27.10;1.00;;;;;;5047811;28;20703;-76
2023/09/03 08:49:31;;;;;;;7.30;4.73;;;27.20;1.00;;;;;;5045538;28;20277;-78
2023/09/03 08:51:59;;;;;;;5.73;4.70;;;27.50;1.00;;;;;;5047354;28;20231;-78
2023/09/03 08:54:26;;;;;;;7.07;4.90;;;27.50;1.00;;;;;;5046308;28;20681;-77
2023/09/03 08:56:51;;;;;;;11.53;5.00;;;28.00;1.00;;;;;;5046876;28;20195;-77
2023/09/03 08:59:17;;;;;;;7.70;4.43;;;28.30;1.00;;;;;;5047172;28;20185;-77
2023/09/03 09:01:45;;;;;;;6.38;4.53;;;29.60;1.00;;;;;;5046557;28;20185;-78
2023/09/03 09:04:12;;;;;;;7.03;4.70;;;29.80;1.00;;;;;;5046674;28;20189;-80
2023/09/03 09:06:43;;;;;;;7.40;4.95;;;30.40;1.00;;;;;;5045664;28;20208;-78
2023/09/03 09:09:09;;;;;;;6.85;4.18;;;30.50;1.00;;;;;;5046819;28;20613;-78
2023/09/03 09:11:39;;;;;;;5.50;4.47;;;30.80;1.00;;;;;;5045973;28;20188;-79
2023/09/03 09:14:15;;;;;;;6.32;4.40;;;30.40;1.00;;;;;;5045798;28;20558;-78
2023/09/03 09:16:40;;;;;;;5.72;4.38;;;30.40;1.00;;;;;;5045644;28;20268;-79
2023/09/03 09:19:06;;;;;;;6.43;4.72;;;31.20;1.00;;;;;;5047753;28;20272;-78
2023/09/03 09:21:32;;;;;;;6.43;3.88;;;32.20;1.00;;;;;;5046755;28;20199;-78
2023/09/03 09:24:02;;;;;;;7.90;4.03;;;33.60;1.00;;;;;;5046689;28;20578;-79
2023/09/03 09:26:33;;;;;;;6.90;3.83;;;33.60;1.00;;;;;;5045367;28;20261;-77
2023/09/03 09:29:00;;;;;;;8.57;3.85;;;33.90;1.00;;;;;;5047984;28;20181;-78
2023/09/03 09:31:30;;;;;;;5.03;3.60;;;33.90;1.00;;;;;;5050397;28;20180;-76
2023/09/03 09:33:58;;;;;;;5.90;3.75;;;34.70;1.00;;;;;;5050225;28;20200;-76
2023/09/03 09:36:24;;;;;;;5.55;3.55;;;35.00;1.00;;;;;;5048730;28;20283;-77
2023/09/03 09:38:49;;;;;;;7.28;3.50;;;35.20;1.00;;;;;;5051299;28;20259;-76
2023/09/03 09:41:26;;;;;;;4.78;3.45;;;35.90;1.00;;;;;;5049099;28;20215;-76
2023/09/03 09:43:52;;;;;;;7.20;3.53;;;36.50;1.00;;;;;;5050038;28;20223;-76
2023/09/03 09:46:33;;;;;;;6.22;3.72;;;36.60;1.00;;;;;;5050414;28;20543;-76
2023/09/03 09:49:00;;;;;;;6.25;3.10;;;36.00;1.00;;;;;;5045806;28;20184;-76
2023/09/03 09:51:27;;;;;;;6.88;3.67;;;36.10;1.00;;;;;;5051690;28;20177;-76
2023/09/03 09:53:57;;;;;;;7.88;3.60;;;36.10;1.00;;;;;;5054245;28;20750;-74
2023/09/03 09:56:36;;;;;;;5.90;4.20;;;36.00;1.00;;;;;;5069522;28;20288;-77
2023/09/03 09:59:02;;;;;;;5.68;3.63;;;36.40;1.00;;;;;;5047509;28;20408;-76
2023/09/03 10:01:43;;;;;;;8.80;3.75;;;37.00;1.00;;;;;;5049402;28;20188;-76
2023/09/03 10:04:09;;;;;;;6.10;4.22;;;37.20;1.00;;;;;;5060014;28;20268;-76
2023/09/03 10:06:35;;;;;;;10.18;4.85;;;37.50;1.00;;;;;;5050151;28;20275;-77
2023/09/03 10:09:00;;;;;;;5.53;3.50;;;37.90;1.00;;;;;;5051942;28;20547;-75
2023/09/03 10:11:26;;;;;;;4.70;3.03;;;38.00;1.00;;;;;;5049588;28;20177;-77
2023/09/03 10:13:52;;;;;;;9.02;3.13;;;37.90;1.00;;;;;;5050132;28;20197;-77
2023/09/03 10:16:21;;;;;;;8.27;3.50;;;38.10;1.00;;;;;;5058510;28;20190;-75
2023/09/03 10:18:48;;;;;;;5.05;3.30;;;37.90;1.00;;;;;;5049992;28;20674;-76
2023/09/03 10:21:22;;;;;;;5.88;3.10;;;37.80;1.00;;;;;;5051397;28;20548;-76
2023/09/03 10:23:50;;;;;;;4.05;2.80;;;37.50;1.00;;;;;;5049967;28;20206;-76
2023/09/03 10:26:22;;;;;;;6.53;2.95;;;37.40;1.00;;;;;;5050328;28;20189;-75
2023/09/03 10:28:53;;;;;;;4.55;2.83;;;37.70;1.00;;;;;;5051156;28;20196;-76
2023/09/03 10:31:19;;;;;;;6.28;2.55;;;37.50;1.00;;;;;;5049155;28;20196;-76
2023/09/03 10:33:45;;;;;;;4.30;2.90;;;37.80;1.00;;;;;;5049080;28;20204;-76
2023/09/03 10:36:18;;;;;;;4.57;2.50;;;38.50;1.00;;;;;;5051233;28;20727;-76
2023/09/03 10:38:45;;;;;;;4.43;2.80;;;39.40;1.00;;;;;;5051140;28;20658;-77
2023/09/03 10:41:22;;;;;;;6.45;2.40;;;40.10;1.00;;;;;;5050821;28;20610;-77
2023/09/03 10:43:53;;;;;;;4.20;2.40;;;40.90;1.00;;;;;;5050722;28;20668;-77
2023/09/03 10:46:20;;;;;;;4.63;2.47;;;41.20;1.00;;;;;;5051297;28;20659;-76
2023/09/03 10:48:54;;;;;;;3.67;2.50;;;40.90;1.00;;;;;;5051210;28;20858;-77
2023/09/03 10:51:34;;;;;;;4.00;2.28;;;40.50;1.00;;;;;;5053504;28;20219;-77
2023/09/03 10:54:19;;;;;;;5.28;2.35;;;39.80;1.00;;;;;;5043632;28;20238;-77
2023/09/03 10:57:04;;;;;;;3.40;2.38;;;38.60;1.00;;;;;;5049385;28;20589;-76
2023/09/03 10:59:57;;;;;;;4.00;2.65;;;38.40;1.00;;;;;;5048177;28;20180;-76
2023/09/03 11:02:24;;;;;;;3.85;2.40;;;38.60;1.00;;;;;;5049622;28;20701;-76
2023/09/03 11:05:10;;;;;;;6.85;2.75;;;39.00;1.00;;;;;;5050421;28;20673;-77
2023/09/03 11:07:36;;;;;;;5.15;2.67;;;39.60;1.00;;;;;;5050152;28;20582;-77
2023/09/03 11:10:20;;;;;;;5.78;2.80;;;40.00;1.00;;;;;;5050345;28;20177;-77
2023/09/03 11:12:46;;;;;;;3.30;2.05;;;40.30;1.00;;;;;;5050011;28;20204;-76
2023/09/03 11:15:13;;;;;;;3.60;2.28;;;40.50;1.00;;;;;;5051010;28;20226;-76
2023/09/03 11:17:48;;;;;;;3.20;2.20;;;40.70;1.00;;;;;;5050484;28;20181;-76
2023/09/03 11:20:27;;;;;;;3.45;2.10;;;41.40;1.00;;;;;;5050288;28;20182;-76
2023/09/03 11:22:54;;;;;;;3.50;2.40;;;41.60;1.00;;;;;;5050094;28;20686;-76
2023/09/03 11:25:37;;;;;;;2.78;2.05;;;41.20;1.00;;;;;;5057812;28;20548;-76
2023/09/03 11:28:04;;;;;;;2.85;2.00;;;41.40;1.00;;;;;;5043094;28;20204;-76
2023/09/03 11:30:30;;;;;;;3.40;2.20;;;41.80;1.00;;;;;;5050091;28;20283;-77
2023/09/03 11:32:57;;;;;;;3.63;2.38;;;42.60;1.00;;;;;;5049658;28;20207;-76
2023/09/03 11:35:23;;;;;;;3.72;2.00;;;42.90;1.00;;;;;;5047617;28;20192;-76
2023/09/03 11:37:50;;;;;;;3.20;2.00;;;43.00;1.00;;;;;;5047161;28;20192;-77
2023/09/03 11:40:16;;;;;;;5.68;2.50;;;42.60;1.00;;;;;;5047169;28;20209;-76
2023/09/03 11:42:43;;;;;;;3.65;2.10;;;41.20;1.00;;;;;;5045261;28;20287;-76
2023/09/03 11:45:11;;;;;;;3.55;2.15;;;40.60;1.00;;;;;;5051368;28;20198;-76
2023/09/03 11:47:40;;;;;;;4.40;1.88;;;41.00;1.00;;;;;;5047890;28;20254;-73
2023/09/03 11:50:10;;;;;;;2.80;1.90;;;41.00;1.00;;;;;;5047611;28;20208;-76
2023/09/03 11:52:35;;;;;;;4.40;1.92;;;40.90;1.00;;;;;;5040035;28;20209;-76
2023/09/03 11:55:01;;;;;;;3.05;2.20;;;40.90;1.00;;;;;;5037664;28;20200;-76
2023/09/03 11:57:28;;;;;;;4.22;2.30;;;40.60;1.00;;;;;;5045285;28;20196;-77
2023/09/03 11:59:54;;;;;;;3.17;2.35;;;40.50;1.00;;;;;;5050018;28;20647;-75
2023/09/03 12:02:21;;;;;;;3.47;2.20;;;40.90;1.00;;;;;;5047677;28;20306;-76
2023/09/03 12:04:47;;;;;;;3.00;2.30;;;41.00;1.00;;;;;;5047496;28;20191;-76
2023/09/03 12:07:16;;;;;;;3.85;2.45;;;41.40;1.00;;;;;;5042763;28;20204;-76
2023/09/03 12:09:42;;;;;;;3.22;2.53;;;41.30;1.00;;;;;;5044457;28;20246;-76
2023/09/03 12:12:08;;;;;;;5.40;2.35;;;40.90;1.00;;;;;;5044850;28;20666;-76
2023/09/03 12:14:34;;;;;;;3.65;2.25;;;40.70;1.00;;;;;;5040240;28;20193;-75
2023/09/03 12:17:00;;;;;;;4.25;2.22;;;40.80;1.00;;;;;;5043486;28;20306;-76
2023/09/03 12:19:41;;;;;;;6.57;2.40;;;40.80;1.00;;;;;;5044504;28;20291;-75
2023/09/03 12:22:08;;;;;;;3.78;2.35;;;40.60;1.00;;;;;;5043601;28;20222;-75
2023/09/03 12:24:33;;;;;;;4.35;2.40;;;40.20;1.00;;;;;;5047533;28;20977;-75
2023/09/03 12:27:03;;;;;;;4.82;2.80;;;40.00;1.00;;;;;;5044949;28;20302;-75
2023/09/03 12:29:35;;;;;;;4.40;2.60;;;39.50;1.00;;;;;;5036819;28;20811;-75
2023/09/03 12:32:01;;;;;;;3.97;2.50;;;39.50;1.00;;;;;;5039964;28;20262;-75
2023/09/03 12:34:34;;;;;;;3.20;2.22;;;39.80;1.00;;;;;;5044784;28;20184;-75
2023/09/03 12:37:00;;;;;;;4.10;2.60;;;40.60;1.00;;;;;;5045914;28;20188;-75
2023/09/03 12:39:33;;;;;;;3.50;2.63;;;40.30;1.00;;;;;;5046307;28;20609;-74
2023/09/03 12:42:03;;;;;;;4.07;2.90;;;39.20;1.00;;;;;;5045900;28;20267;-75
2023/09/03 12:44:29;;;;;;;3.60;2.75;;;39.20;1.00;;;;;;5046324;28;20196;-75
2023/09/03 12:46:55;;;;;;;4.22;2.55;;;40.10;1.00;;;;;;5044726;28;20911;-74
2023/09/03 12:49:21;;;;;;;3.58;2.70;;;40.20;1.00;;;;;;5046815;28;20705;-75
2023/09/03 12:51:47;;;;;;;4.22;3.08;;;39.90;1.00;;;;;;5046509;28;20189;-75
2023/09/03 12:54:14;;;;;;;4.03;2.83;;;39.70;1.00;;;;;;5042819;28;20239;-73
2023/09/03 12:56:39;;;;;;;4.35;3.10;;;38.70;1.00;;;;;;5046310;28;20230;-75
2023/09/03 12:59:06;;;;;;;4.90;2.90;;;39.20;1.00;;;;;;5045987;28;20184;-76